createdAt,value
2017-02-27T00:00:59.166Z,50.54
2017-02-27T00:01:59.187Z,50.54
2017-02-27T00:02:59.227Z,50.35
2017-02-27T00:03:59.244Z,50.35
2017-02-27T00:04:59.268Z,50.84
2017-02-27T00:05:59.306Z,50.54
2017-02-27T00:06:59.327Z,51.03
2017-02-27T00:07:59.356Z,50.64
2017-02-27T00:08:59.384Z,50.84
2017-02-27T00:09:59.020Z,50.93
2017-02-27T00:10:59.042Z,50.84
2017-02-27T00:11:59.463Z,51.03
2017-02-27T00:12:59.501Z,51.03
2017-02-27T00:13:59.525Z,51.12
2017-02-27T00:14:59.157Z,50.93
2017-02-27T00:15:59.189Z,51.03
2017-02-27T00:16:59.207Z,50.84
2017-02-27T00:17:59.630Z,50.93
2017-02-27T00:18:59.663Z,51.03
2017-02-27T00:19:59.289Z,51.03
2017-02-27T00:20:59.718Z,51.03
2017-02-27T00:21:59.751Z,50.93
2017-02-27T00:22:59.379Z,50.84
2017-02-27T00:24:00.052Z,50.74
2017-02-27T00:24:59.832Z,50.84
2017-02-27T00:25:59.857Z,50.74
2017-02-27T00:26:59.901Z,50.93
2017-02-27T00:27:59.919Z,50.74
2017-02-27T00:29:00.063Z,50.74
2017-02-27T00:29:59.976Z,51.03
2017-02-27T00:30:59.997Z,50.84
2017-02-27T00:32:00.025Z,51.12
2017-02-27T00:32:59.659Z,51.51
2017-02-27T00:34:00.187Z,51.32
2017-02-27T00:34:59.711Z,51.51
2017-02-27T00:36:00.137Z,50.93
2017-02-27T00:37:00.169Z,51.03
2017-02-27T00:37:59.807Z,50.93
2017-02-27T00:39:00.091Z,50.93
2017-02-27T00:40:00.248Z,51.32
2017-02-27T00:41:00.276Z,51.41
2017-02-27T00:42:00.301Z,51.41
2017-02-27T00:42:59.950Z,51.29
2017-02-27T00:44:00.618Z,51.48
2017-02-27T00:45:00.391Z,51.39
2017-02-27T00:46:00.024Z,51.03
2017-02-27T00:47:00.037Z,51.51
2017-02-27T00:48:00.482Z,50.9
2017-02-27T00:49:00.746Z,50.81
2017-02-27T00:50:00.527Z,51.03
2017-02-27T00:51:00.559Z,50.93
2017-02-27T00:52:00.184Z,50.93
2017-02-27T00:53:00.617Z,50.84
2017-02-27T00:54:00.886Z,50.84
2017-02-27T00:55:00.667Z,50.81
2017-02-27T00:56:00.696Z,50.93
2017-02-27T00:57:00.717Z,50.81
2017-02-27T00:58:00.749Z,50.9
2017-02-27T00:59:01.037Z,50.81
2017-02-27T01:00:00.802Z,50.9
2017-02-27T01:01:00.831Z,50.9
2017-02-27T01:02:00.860Z,50.71
2017-02-27T01:03:00.893Z,50.71
2017-02-27T01:04:00.770Z,50.81
2017-02-27T01:05:00.938Z,50.9
2017-02-27T01:06:00.575Z,51
2017-02-27T01:07:00.604Z,51.1
2017-02-27T01:08:01.032Z,51
2017-02-27T01:09:01.306Z,51
2017-02-27T01:10:00.698Z,50.9
2017-02-27T01:11:00.719Z,50.93
2017-02-27T01:12:01.132Z,50.81
2017-02-27T01:13:00.809Z,51
2017-02-27T01:14:01.445Z,51.1
2017-02-27T01:15:01.224Z,51.1
2017-02-27T01:16:00.859Z,51
2017-02-27T01:17:01.275Z,50.9
2017-02-27T01:18:00.908Z,51
2017-02-27T01:19:01.449Z,51.1
2017-02-27T01:20:01.367Z,50.9
2017-02-27T01:21:00.987Z,50.9
2017-02-27T01:22:01.421Z,51
2017-02-27T01:23:01.441Z,50.9
2017-02-27T01:24:01.337Z,51.1
2017-02-27T01:25:01.497Z,50.9
2017-02-27T01:26:01.141Z,50.9
2017-02-27T01:27:01.550Z,50.9
2017-02-27T01:28:01.580Z,51
2017-02-27T01:29:01.471Z,51.1
2017-02-27T01:30:01.249Z,50.42
2017-02-27T01:31:01.266Z,50.42
2017-02-27T01:32:01.294Z,50.52
2017-02-27T01:33:01.319Z,50.52
2017-02-27T01:34:01.964Z,51.1
2017-02-27T01:37:01.398Z,51
2017-02-27T01:52:46.251Z,51.1
2017-02-27T01:53:46.280Z,50.42
2017-02-27T01:54:46.304Z,50.23
2017-02-27T01:55:46.725Z,50.52
2017-02-27T01:56:46.605Z,50.23
2017-02-27T01:57:46.398Z,51.29
2017-02-27T01:58:46.415Z,50.32
2017-02-27T01:59:46.444Z,51.1
2017-02-27T02:00:46.872Z,50.71
2017-02-27T02:01:46.750Z,50.52
2017-02-27T02:02:46.930Z,50.52
2017-02-27T02:03:46.551Z,50.52
2017-02-27T02:04:46.972Z,50.71
2017-02-27T02:05:46.616Z,50.71
2017-02-27T02:06:46.885Z,50.42
2017-02-27T02:07:47.069Z,50.13
2017-02-27T02:08:46.689Z,50.42
2017-02-27T02:09:46.718Z,50.32
2017-02-27T02:10:47.140Z,50.23
2017-02-27T02:11:47.024Z,50.13
2017-02-27T02:12:47.198Z,50.32
2017-02-27T02:13:47.227Z,50.3
2017-02-27T02:14:47.252Z,50.32
2017-02-27T02:15:47.284Z,50.23
2017-02-27T02:16:47.565Z,50.23
2017-02-27T02:17:46.946Z,50.13
2017-02-27T02:18:46.974Z,50.13
2017-02-27T02:19:46.999Z,50.13
2017-02-27T02:20:47.420Z,50.32
2017-02-27T02:21:47.296Z,50.4
2017-02-27T02:22:47.077Z,50.3
2017-02-27T02:23:47.511Z,50.49
2017-02-27T02:24:47.143Z,50.59
2017-02-27T02:25:47.160Z,50.42
2017-02-27T02:26:47.842Z,50.3
2017-02-27T02:27:47.222Z,50.21
2017-02-27T02:28:47.639Z,50.11
2017-02-27T02:29:47.270Z,50.59
2017-02-27T02:30:47.707Z,50.23
2017-02-27T02:31:47.980Z,50.49
2017-02-27T02:32:47.749Z,50.4
2017-02-27T02:33:47.782Z,50.4
2017-02-27T02:34:47.818Z,50.32
2017-02-27T02:35:47.833Z,50.4
2017-02-27T02:36:47.468Z,50.59
2017-02-27T02:37:47.909Z,50.21
2017-02-27T02:38:47.912Z,50.3
2017-02-27T02:39:47.551Z,50.21
2017-02-27T02:40:47.977Z,50.4
2017-02-27T02:41:47.995Z,50.49
2017-02-27T02:42:48.024Z,50.3
2017-02-27T02:43:48.053Z,50.3
2017-02-27T02:44:48.090Z,50.49
2017-02-27T02:45:48.103Z,50.3
2017-02-27T02:46:48.150Z,50.4
2017-02-27T02:47:47.766Z,50.3
2017-02-27T02:48:47.797Z,50.4
2017-02-27T02:49:47.839Z,50.49
2017-02-27T02:50:47.852Z,50.4
2017-02-27T02:51:48.276Z,50.49
2017-02-27T02:52:47.904Z,50.4
2017-02-27T02:53:48.341Z,50.3
2017-02-27T02:54:48.351Z,50.49
2017-02-27T02:55:48.383Z,50.49
2017-02-27T02:56:48.407Z,50.3
2017-02-27T02:57:48.056Z,50.49
2017-02-27T02:58:48.069Z,50.49
2017-02-27T02:59:48.105Z,50.3
2017-02-27T03:00:48.122Z,50.21
2017-02-27T03:01:48.160Z,50.59
2017-02-27T03:02:48.180Z,50.3
2017-02-27T03:03:48.604Z,50.21
2017-02-27T03:04:48.234Z,49.91
2017-02-27T03:05:48.266Z,49.82
2017-02-27T03:06:48.296Z,50.01
2017-02-27T03:07:48.712Z,50.01
2017-02-27T03:08:48.741Z,50.01
2017-02-27T03:09:48.764Z,49.82
2017-02-27T03:10:48.794Z,50.01
2017-02-27T03:11:48.831Z,49.82
2017-02-27T03:12:48.456Z,50.01
2017-02-27T03:13:48.488Z,50.21
2017-02-27T03:14:48.509Z,50.3
2017-02-27T03:15:48.555Z,50.01
2017-02-27T03:16:48.966Z,49.91
2017-02-27T03:17:48.594Z,50.21
2017-02-27T03:18:48.624Z,50.01
2017-02-27T03:19:49.041Z,49.73
2017-02-27T03:20:49.069Z,49.91
2017-02-27T03:21:49.097Z,50.21
2017-02-27T03:22:49.123Z,50.3
2017-02-27T03:23:48.756Z,50.01
2017-02-27T03:24:48.783Z,50.21
2017-02-27T03:25:48.809Z,49.73
2017-02-27T03:26:48.842Z,49.82
2017-02-27T03:27:49.506Z,50.3
2017-02-27T03:28:49.287Z,49.82
2017-02-27T03:29:49.340Z,49.82
2017-02-27T03:30:49.345Z,49.53
2017-02-27T03:31:48.974Z,49.82
2017-02-27T03:32:49.254Z,49.91
2017-02-27T03:33:49.428Z,50.01
2017-02-27T03:34:49.447Z,50.01
2017-02-27T03:35:49.483Z,50.11
2017-02-27T03:36:49.509Z,49.82
2017-02-27T03:37:49.390Z,49.91
2017-02-27T03:38:49.563Z,49.82
2017-02-27T03:39:49.591Z,49.91
2017-02-27T03:40:49.212Z,49.91
2017-02-27T03:41:49.637Z,49.91
2017-02-27T03:42:49.936Z,50.01
2017-02-27T03:43:49.698Z,49.82
2017-02-27T03:44:49.723Z,50.01
2017-02-27T03:45:49.760Z,49.53
2017-02-27T03:46:49.400Z,50.01
2017-02-27T03:47:49.678Z,50.01
2017-02-27T03:48:49.839Z,49.63
2017-02-27T03:49:49.855Z,50.11
2017-02-27T03:50:49.504Z,50.01
2017-02-27T03:51:49.524Z,49.63
2017-02-27T03:52:49.805Z,49.53
2017-02-27T03:53:49.577Z,49.63
2017-02-27T03:54:49.998Z,49.63
2017-02-27T03:55:49.635Z,49.24
2017-02-27T03:56:49.660Z,49.43
2017-02-27T03:57:50.357Z,49.53
2017-02-27T03:58:49.713Z,49.43
2017-02-27T03:59:49.739Z,49.43
2017-02-27T04:00:50.171Z,49.63
2017-02-27T04:01:49.796Z,49.24
2017-02-27T04:02:50.471Z,49.53
2017-02-27T04:03:50.261Z,49.53
2017-02-27T04:04:50.278Z,49.63
2017-02-27T04:05:49.907Z,50.01
2017-02-27T04:06:50.328Z,49.63
2017-02-27T04:07:50.460Z,49.63
2017-02-27T04:08:49.993Z,49.43
2017-02-27T04:09:50.018Z,49.63
2017-02-27T04:10:50.439Z,49.63
2017-02-27T04:11:50.467Z,49.73
2017-02-27T04:12:50.742Z,49.82
2017-02-27T04:13:50.521Z,49.63
2017-02-27T04:14:50.542Z,49.73
2017-02-27T04:15:50.574Z,49.53
2017-02-27T04:16:50.212Z,49.63
2017-02-27T04:17:50.231Z,49.63
2017-02-27T04:18:50.655Z,49.24
2017-02-27T04:19:50.684Z,49.73
2017-02-27T04:20:50.714Z,49.73
2017-02-27T04:21:50.739Z,49.53
2017-02-27T04:22:50.766Z,49.63
2017-02-27T04:23:50.392Z,49.63
2017-02-27T04:24:50.425Z,49.7
2017-02-27T04:25:50.846Z,49.24
2017-02-27T04:26:50.875Z,49.05
2017-02-27T04:27:50.903Z,49.43
2017-02-27T04:28:50.937Z,49.15
2017-02-27T04:29:50.957Z,49.05
2017-02-27T04:30:50.981Z,49.24
2017-02-27T04:31:51.014Z,49.34
2017-02-27T04:32:51.044Z,48.76
2017-02-27T04:33:51.080Z,49.15
2017-02-27T04:34:51.095Z,49.15
2017-02-27T04:35:51.124Z,49.15
2017-02-27T04:36:51.156Z,48.76
2017-02-27T04:37:50.787Z,49.43
2017-02-27T04:38:50.806Z,49.24
2017-02-27T04:39:50.836Z,49.15
2017-02-27T04:40:51.253Z,49.15
2017-02-27T04:41:51.285Z,49.05
2017-02-27T04:42:51.318Z,49.05
2017-02-27T04:43:51.340Z,49.05
2017-02-27T04:44:51.369Z,48.95
2017-02-27T04:45:51.384Z,48.95
2017-02-27T04:46:51.421Z,49.05
2017-02-27T04:47:51.075Z,49.15
2017-02-27T04:48:51.471Z,49.15
2017-02-27T04:49:51.504Z,49.05
2017-02-27T04:50:51.132Z,49.12
2017-02-27T04:51:51.570Z,49.05
2017-02-27T04:52:51.187Z,49.05
2017-02-27T04:53:51.615Z,49.15
2017-02-27T04:54:51.656Z,49.05
2017-02-27T04:55:51.665Z,48.95
2017-02-27T04:56:51.297Z,48.93
2017-02-27T04:57:51.721Z,49.15
2017-02-27T04:58:51.754Z,49.32
2017-02-27T04:59:51.775Z,49.32
2017-02-27T05:00:51.404Z,49.15
2017-02-27T05:01:51.833Z,49.05
2017-02-27T05:02:51.857Z,49.12
2017-02-27T05:03:51.902Z,49.05
2017-02-27T05:04:51.907Z,49.02
2017-02-27T05:05:51.948Z,48.64
2017-02-27T05:06:51.976Z,49.24
2017-02-27T05:07:51.991Z,49.15
2017-02-27T05:08:52.021Z,49.05
2017-02-27T05:09:51.650Z,48.93
2017-02-27T05:10:52.075Z,48.74
2017-02-27T05:11:52.108Z,49.02
2017-02-27T05:12:52.128Z,48.64
2017-02-27T05:13:52.157Z,48.83
2017-02-27T05:14:52.193Z,48.83
2017-02-27T05:15:52.211Z,48.95
2017-02-27T05:16:52.250Z,48.93
2017-02-27T05:17:51.884Z,49.15
2017-02-27T05:18:52.145Z,49.05
2017-02-27T05:19:51.937Z,48.93
2017-02-27T05:20:51.958Z,48.64
2017-02-27T05:21:51.983Z,48.74
2017-02-27T05:22:52.410Z,48.54
2017-02-27T05:23:52.304Z,48.93
2017-02-27T05:24:52.451Z,48.86
2017-02-27T05:25:52.483Z,49.02
2017-02-27T05:26:52.129Z,48.95
2017-02-27T05:27:52.539Z,48.76
2017-02-27T05:28:52.420Z,48.86
2017-02-27T05:29:52.600Z,48.38
2017-02-27T05:30:52.229Z,48.57
2017-02-27T05:31:52.254Z,48.47
2017-02-27T05:32:52.691Z,48.47
2017-02-27T05:33:52.550Z,48.66
2017-02-27T05:34:52.735Z,48.28
2017-02-27T05:35:52.755Z,48.28
2017-02-27T05:36:52.788Z,48.28
2017-02-27T05:37:52.815Z,48.47
2017-02-27T05:38:53.106Z,48.47
2017-02-27T05:39:52.467Z,48.38
2017-02-27T05:40:52.496Z,48.47
2017-02-27T05:41:52.929Z,48.28
2017-02-27T05:42:52.550Z,48.28
2017-02-27T05:43:52.840Z,48.66
2017-02-27T05:44:52.602Z,48.66
2017-02-27T05:45:52.631Z,48.76
2017-02-27T05:46:52.665Z,48.76
2017-02-27T05:47:53.094Z,48.66
2017-02-27T05:48:52.966Z,48.47
2017-02-27T05:49:53.135Z,48.28
2017-02-27T05:50:53.169Z,48.57
2017-02-27T05:51:53.192Z,48.28
2017-02-27T05:52:53.225Z,48.57
2017-02-27T05:53:53.110Z,48.57
2017-02-27T05:54:53.275Z,48.66
2017-02-27T05:55:53.300Z,48.47
2017-02-27T05:56:53.329Z,48.47
2017-02-27T05:57:53.373Z,48.47
2017-02-27T05:58:53.645Z,48.57
2017-02-27T05:59:53.015Z,48.57
2017-02-27T06:00:53.047Z,48.38
2017-02-27T06:01:53.465Z,48.38
2017-02-27T06:02:53.506Z,48.47
2017-02-27T06:03:53.766Z,48.47
2017-02-27T06:04:53.151Z,48.47
2017-02-27T06:05:53.179Z,48.57
2017-02-27T06:06:53.208Z,48.38
2017-02-27T06:07:53.237Z,48.38
2017-02-27T06:08:53.262Z,48.49
2017-02-27T06:09:53.694Z,48.57
2017-02-27T06:10:53.711Z,48.47
2017-02-27T06:11:53.745Z,48.47
2017-02-27T06:12:53.757Z,48.28
2017-02-27T06:13:53.398Z,48.66
2017-02-27T06:14:53.823Z,48.28
2017-02-27T06:15:53.856Z,47.99
2017-02-27T06:16:53.873Z,48.47
2017-02-27T06:17:53.909Z,48.08
2017-02-27T06:18:53.930Z,48.49
2017-02-27T06:19:53.562Z,48.59
2017-02-27T06:20:53.988Z,48.11
2017-02-27T06:21:53.612Z,48.38
2017-02-27T06:22:53.645Z,48.4
2017-02-27T06:23:54.066Z,48.38
2017-02-27T06:24:54.094Z,47.72
2017-02-27T06:25:53.736Z,47.89
2017-02-27T06:26:54.147Z,48.18
2017-02-27T06:27:53.782Z,48.11
2017-02-27T06:28:53.809Z,47.99
2017-02-27T06:29:54.239Z,47.92
2017-02-27T06:30:54.255Z,47.44
2017-02-27T06:31:53.902Z,47.82
2017-02-27T06:32:54.312Z,47.63
2017-02-27T06:33:54.342Z,47.34
2017-02-27T06:34:54.370Z,47.53
2017-02-27T06:35:54.390Z,47.53
2017-02-27T06:36:54.426Z,47.53
2017-02-27T06:37:54.056Z,47.63
2017-02-27T06:38:54.485Z,47.53
2017-02-27T06:39:54.515Z,47.53
2017-02-27T06:40:54.135Z,47.53
2017-02-27T06:41:54.572Z,47.44
2017-02-27T06:42:54.588Z,47.34
2017-02-27T06:43:54.222Z,47.14
2017-02-27T06:44:54.258Z,47.53
2017-02-27T06:45:54.667Z,47.24
2017-02-27T06:46:54.700Z,47.34
2017-02-27T06:47:54.725Z,47.34
2017-02-27T06:48:54.757Z,47.53
2017-02-27T06:49:54.780Z,47.53
2017-02-27T06:50:54.818Z,47.53
2017-02-27T06:51:54.835Z,47.53
2017-02-27T06:52:54.856Z,47.34
2017-02-27T06:53:54.893Z,47.72
2017-02-27T06:54:54.918Z,47.63
2017-02-27T06:55:54.562Z,47.34
2017-02-27T06:56:54.972Z,47.53
2017-02-27T06:57:55.001Z,47.34
2017-02-27T06:58:54.631Z,47.34
2017-02-27T06:59:55.318Z,47.63
2017-02-27T07:00:54.695Z,47.53
2017-02-27T07:01:55.112Z,47.53
2017-02-27T07:02:55.133Z,47.24
2017-02-27T07:03:54.769Z,47.34
2017-02-27T07:04:55.449Z,47.27
2017-02-27T07:05:55.219Z,47.14
2017-02-27T07:06:54.852Z,47.14
2017-02-27T07:07:55.276Z,47.05
2017-02-27T07:08:55.305Z,47.14
2017-02-27T07:09:55.185Z,47.14
2017-02-27T07:10:54.974Z,46.95
2017-02-27T07:11:54.999Z,47.07
2017-02-27T07:12:55.411Z,47.05
2017-02-27T07:13:55.045Z,47.24
2017-02-27T07:14:55.721Z,47.27
2017-02-27T07:15:55.502Z,46.86
2017-02-27T07:16:55.128Z,46.86
2017-02-27T07:17:55.548Z,46.69
2017-02-27T07:18:55.180Z,46.56
2017-02-27T07:19:55.854Z,46.76
2017-02-27T07:20:55.635Z,46.59
2017-02-27T07:21:55.659Z,46.3
2017-02-27T07:22:55.700Z,46.59
2017-02-27T07:23:55.321Z,46.97
2017-02-27T07:24:55.741Z,46.69
2017-02-27T07:25:55.779Z,46.69
2017-02-27T07:26:55.803Z,46.37
2017-02-27T07:27:55.432Z,46.59
2017-02-27T07:28:55.849Z,46.59
2017-02-27T07:29:55.486Z,46.4
2017-02-27T07:30:55.918Z,46.2
2017-02-27T07:31:55.935Z,46.4
2017-02-27T07:32:55.584Z,46.47
2017-02-27T07:33:55.992Z,46.18
2017-02-27T07:34:56.021Z,46.2
2017-02-27T07:35:55.650Z,46.2
2017-02-27T07:36:56.076Z,46.59
2017-02-27T07:37:56.101Z,46.4
2017-02-27T07:38:55.724Z,46.69
2017-02-27T07:39:56.157Z,46.69
2017-02-27T07:40:55.802Z,46.78
2017-02-27T07:41:56.218Z,46.88
2017-02-27T07:42:55.849Z,46.69
2017-02-27T07:43:56.269Z,46.69
2017-02-27T07:44:56.309Z,46.4
2017-02-27T07:45:55.926Z,46.4
2017-02-27T07:46:55.964Z,46.11
2017-02-27T07:47:55.996Z,46.3
2017-02-27T07:48:56.009Z,46.59
2017-02-27T07:49:56.447Z,46.4
2017-02-27T07:50:56.065Z,46.4
2017-02-27T07:51:56.091Z,46.01
2017-02-27T07:52:56.517Z,45.92
2017-02-27T07:53:56.144Z,46.01
2017-02-27T07:54:56.569Z,45.92
2017-02-27T07:55:56.598Z,45.82
2017-02-27T07:56:56.646Z,45.82
2017-02-27T07:57:56.255Z,46.01
2017-02-27T07:58:56.284Z,45.92
2017-02-27T07:59:56.713Z,46.01
2017-02-27T08:00:56.341Z,46.01
2017-02-27T08:01:56.370Z,46.11
2017-02-27T08:02:56.392Z,45.72
2017-02-27T08:03:56.428Z,45.62
2017-02-27T08:04:56.849Z,45.53
2017-02-27T08:05:56.478Z,45.62
2017-02-27T08:06:56.515Z,45.82
2017-02-27T08:07:56.940Z,46.01
2017-02-27T08:08:56.959Z,45.82
2017-02-27T08:09:56.985Z,45.72
2017-02-27T08:10:57.049Z,45.89
2017-02-27T08:11:56.639Z,46.01
2017-02-27T08:12:57.079Z,45.53
2017-02-27T08:13:56.703Z,45.53
2017-02-27T08:14:57.121Z,45.43
2017-02-27T08:15:57.154Z,45.14
2017-02-27T08:16:57.182Z,45.14
2017-02-27T08:17:57.207Z,45.43
2017-02-27T08:18:56.836Z,45.34
2017-02-27T08:19:56.869Z,45.34
2017-02-27T08:20:56.889Z,45.34
2017-02-27T08:21:57.318Z,45.34
2017-02-27T08:22:57.347Z,44.95
2017-02-27T08:23:57.366Z,45.24
2017-02-27T08:24:57.400Z,45.53
2017-02-27T08:25:57.424Z,45.53
2017-02-27T08:26:57.062Z,45.43
2017-02-27T08:27:57.482Z,45.04
2017-02-27T08:28:57.115Z,45.14
2017-02-27T08:29:57.160Z,45.04
2017-02-27T08:30:57.668Z,45.34
2017-02-27T08:31:57.233Z,45.24
2017-02-27T08:32:57.622Z,45.24
2017-02-27T08:33:57.260Z,45.14
2017-02-27T08:34:57.676Z,44.95
2017-02-27T08:35:57.965Z,45.04
2017-02-27T08:36:57.738Z,45.34
2017-02-27T08:37:57.357Z,45.62
2017-02-27T08:38:57.791Z,45.53
2017-02-27T08:39:57.819Z,45.34
2017-02-27T08:40:58.112Z,45.34
2017-02-27T08:41:57.869Z,45.14
2017-02-27T08:42:57.498Z,45.24
2017-02-27T08:43:57.926Z,44.78
2017-02-27T08:44:57.561Z,44.2
2017-02-27T08:45:57.840Z,43.72
2017-02-27T08:46:57.617Z,43.16
2017-02-27T08:47:57.641Z,42.79
2017-02-27T08:48:57.690Z,42.24
2017-02-27T08:49:57.699Z,41.56
2017-02-27T08:50:57.979Z,41.19
2017-02-27T08:51:58.152Z,40.15
2017-02-27T08:52:58.189Z,40.17
2017-02-27T08:53:57.815Z,39.39
2017-02-27T08:54:58.234Z,38.81
2017-02-27T08:55:58.119Z,39.32
2017-02-27T08:56:58.291Z,39.03
2017-02-27T08:57:57.937Z,38.93
2017-02-27T08:58:57.950Z,38.93
2017-02-27T08:59:57.986Z,39.39
2017-02-27T09:00:58.263Z,38.81
2017-02-27T09:01:58.433Z,39.12
2017-02-27T09:02:58.460Z,38.83
2017-02-27T09:03:58.503Z,38.93
2017-02-27T09:04:58.122Z,38.83
2017-02-27T09:05:58.406Z,38.62
2017-02-27T09:06:58.180Z,39.29
2017-02-27T09:07:58.209Z,39.67
2017-02-27T09:08:58.238Z,39.76
2017-02-27T09:09:58.663Z,39.28
2017-02-27T09:10:58.550Z,40.13
2017-02-27T09:11:58.715Z,39.94
2017-02-27T09:12:58.348Z,40.13
2017-02-27T09:13:58.397Z,39.82
2017-02-27T09:14:58.406Z,40.11
2017-02-27T09:15:58.690Z,40.2
2017-02-27T09:16:58.863Z,40.69
2017-02-27T09:17:58.896Z,40.69
2017-02-27T09:18:58.922Z,41.08
2017-02-27T09:19:58.950Z,41.15
2017-02-27T09:20:58.829Z,41.25
2017-02-27T09:21:59.004Z,40.57
2017-02-27T09:22:59.033Z,41.05
2017-02-27T09:23:59.073Z,41.73
2017-02-27T09:24:59.085Z,41.25
2017-02-27T09:25:59.221Z,41.54
2017-02-27T09:26:58.764Z,41.35
2017-02-27T09:27:58.787Z,41.52
2017-02-27T09:28:59.220Z,41.42
2017-02-27T09:29:59.238Z,41.81
2017-02-27T09:30:59.109Z,41.71
2017-02-27T09:31:59.286Z,41.91
2017-02-27T09:32:58.943Z,42.1
2017-02-27T09:33:59.340Z,42.1
2017-02-27T09:34:58.989Z,42.29
2017-02-27T09:35:59.102Z,42.1
2017-02-27T09:36:59.031Z,41.91
2017-02-27T09:37:59.452Z,42.29
2017-02-27T09:38:59.493Z,42.39
2017-02-27T09:39:59.110Z,42.19
2017-02-27T09:40:59.791Z,42.29
2017-02-27T09:41:59.566Z,42.39
2017-02-27T09:42:59.199Z,42.27
2017-02-27T09:43:59.632Z,42.39
2017-02-27T09:44:59.668Z,42.58
2017-02-27T09:45:59.561Z,42.48
2017-02-27T09:46:59.322Z,42.29
2017-02-27T09:47:59.735Z,42.29
2017-02-27T09:48:59.367Z,42.19
2017-02-27T09:49:59.792Z,42.36
2017-02-27T09:50:59.685Z,42.27
2017-02-27T09:51:59.846Z,42.19
2017-02-27T09:52:59.887Z,42.27
2017-02-27T09:53:59.904Z,42.27
2017-02-27T09:54:59.933Z,42.27
2017-02-27T09:56:00.109Z,42.18
2017-02-27T09:57:00.001Z,42.36
2017-02-27T09:58:00.030Z,42.27
2017-02-27T09:58:59.650Z,42.36
2017-02-27T09:59:59.676Z,42.36
2017-02-27T10:00:59.700Z,42.27
2017-02-27T10:01:59.742Z,42.27
2017-02-27T10:03:00.170Z,42.48
2017-02-27T10:03:59.791Z,42.29
2017-02-27T10:04:59.844Z,42.48
2017-02-27T10:06:00.245Z,42.39
2017-02-27T10:06:59.877Z,42.58
2017-02-27T10:08:00.303Z,42.29
2017-02-27T10:08:59.926Z,42.29
2017-02-27T10:10:00.364Z,41.81
2017-02-27T10:11:00.010Z,41.91
2017-02-27T10:12:00.413Z,41.71
2017-02-27T10:13:00.441Z,42.1
2017-02-27T10:14:00.071Z,42.19
2017-02-27T10:15:00.494Z,42.1
2017-02-27T10:16:00.540Z,42.58
2017-02-27T10:17:00.557Z,41.71
2017-02-27T10:18:00.190Z,42
2017-02-27T10:19:00.226Z,42.29
2017-02-27T10:20:00.243Z,42.02
2017-02-27T10:21:00.272Z,42.02
2017-02-27T10:22:00.705Z,42.21
2017-02-27T10:23:00.345Z,42.21
2017-02-27T10:24:00.751Z,41.93
2017-02-27T10:25:00.795Z,41.35
2017-02-27T10:26:00.412Z,41.63
2017-02-27T10:27:00.440Z,41.15
2017-02-27T10:28:00.897Z,41.25
2017-02-27T10:29:00.498Z,41.44
2017-02-27T10:30:00.547Z,41.54
2017-02-27T10:31:00.556Z,41.54
2017-02-27T10:32:00.975Z,41.44
2017-02-27T10:33:00.618Z,41.44
2017-02-27T10:34:00.642Z,41.15
2017-02-27T10:35:00.663Z,41.25
2017-02-27T10:36:01.091Z,41.35
2017-02-27T10:37:01.121Z,41.35
2017-02-27T10:38:01.153Z,41.44
2017-02-27T10:39:01.174Z,41.35
2017-02-27T10:40:01.218Z,41.35
2017-02-27T10:41:01.239Z,41.63
2017-02-27T10:42:00.868Z,41.35
2017-02-27T10:43:01.293Z,41.25
2017-02-27T10:44:01.322Z,41.44
2017-02-27T10:45:00.953Z,41.25
2017-02-27T10:46:01.376Z,41.73
2017-02-27T10:47:01.019Z,41.63
2017-02-27T10:48:01.039Z,41.44
2017-02-27T10:49:01.060Z,41.15
2017-02-27T10:50:01.486Z,41.44
2017-02-27T10:51:01.515Z,41.44
2017-02-27T10:52:01.552Z,41.44
2017-02-27T10:53:01.181Z,41.44
2017-02-27T10:54:01.609Z,41.44
2017-02-27T10:55:01.241Z,41.44
2017-02-27T10:56:01.277Z,41.44
2017-02-27T10:57:01.303Z,41.44
2017-02-27T10:58:01.320Z,41.25
2017-02-27T10:59:01.345Z,41.35
2017-02-27T11:00:01.382Z,41.15
2017-02-27T11:01:01.818Z,41.25
2017-02-27T11:02:01.435Z,41.63
2017-02-27T11:03:01.463Z,41.25
2017-02-27T11:04:01.893Z,41.35
2017-02-27T11:05:01.914Z,41.44
2017-02-27T11:06:01.549Z,41.44
2017-02-27T11:07:01.983Z,41.44
2017-02-27T11:08:02.004Z,41.54
2017-02-27T11:09:02.033Z,41.54
2017-02-27T11:10:02.064Z,41.35
2017-02-27T11:11:02.101Z,41.54
2017-02-27T11:12:02.119Z,41.54
2017-02-27T11:13:01.772Z,41.25
2017-02-27T11:14:02.176Z,41.44
2017-02-27T11:15:02.214Z,41.15
2017-02-27T11:16:02.242Z,41.05
2017-02-27T11:17:02.259Z,41.05
2017-02-27T11:18:02.295Z,40.57
2017-02-27T11:19:01.924Z,40.57
2017-02-27T11:20:01.949Z,40.57
2017-02-27T11:21:02.386Z,40.77
2017-02-27T11:22:02.399Z,40.57
2017-02-27T11:23:02.447Z,40.86
2017-02-27T11:24:02.463Z,40.77
2017-02-27T11:25:02.492Z,40.57
2017-02-27T11:26:02.122Z,40.67
2017-02-27T11:27:02.150Z,40.86
2017-02-27T11:28:02.588Z,41.35
2017-02-27T11:29:02.608Z,40.86
2017-02-27T11:30:02.632Z,40.86
2017-02-27T11:31:02.661Z,41.15
2017-02-27T11:32:02.294Z,40.67
2017-02-27T11:33:02.735Z,41.15
2017-02-27T11:34:02.352Z,41.15
2017-02-27T11:35:02.381Z,41.23
2017-02-27T11:36:02.409Z,41.13
2017-02-27T11:37:02.835Z,40.75
2017-02-27T11:38:02.871Z,40.94
2017-02-27T11:39:02.891Z,40.75
2017-02-27T11:40:02.916Z,41.03
2017-02-27T11:41:02.953Z,41.03
2017-02-27T11:42:02.581Z,40.84
2017-02-27T11:43:02.607Z,41.52
2017-02-27T11:44:02.639Z,41.03
2017-02-27T11:45:02.663Z,41.13
2017-02-27T11:46:02.700Z,41.03
2017-02-27T11:47:02.726Z,41.33
2017-02-27T11:48:02.750Z,41.61
2017-02-27T11:49:02.779Z,41.33
2017-02-27T11:50:03.205Z,41.52
2017-02-27T11:51:03.233Z,41.42
2017-02-27T11:52:03.280Z,41.2
2017-02-27T11:53:03.302Z,41.3
2017-02-27T11:54:02.924Z,41.02
2017-02-27T11:55:03.343Z,41.5
2017-02-27T11:56:03.372Z,41.4
2017-02-27T11:57:03.417Z,41.6
2017-02-27T11:58:03.430Z,41.69
2017-02-27T11:59:03.459Z,41.6
2017-02-27T12:00:03.491Z,41.69
2017-02-27T12:01:03.512Z,41.11
2017-02-27T12:02:03.645Z,41.69
2017-02-27T12:03:03.569Z,41.5
2017-02-27T12:04:03.210Z,41.69
2017-02-27T12:05:03.238Z,41.6
2017-02-27T12:06:03.644Z,41.98
2017-02-27T12:07:03.937Z,41.4
2017-02-27T12:08:03.317Z,41.88
2017-02-27T12:09:03.742Z,42.08
2017-02-27T12:10:03.787Z,41.69
2017-02-27T12:11:03.799Z,42.08
2017-02-27T12:12:03.692Z,41.98
2017-02-27T12:13:03.865Z,42.08
2017-02-27T12:14:03.486Z,41.88
2017-02-27T12:15:03.907Z,41.98
2017-02-27T12:16:03.543Z,42.18
2017-02-27T12:17:04.228Z,42.18
2017-02-27T12:18:04.009Z,41.98
2017-02-27T12:19:04.030Z,41.98
2017-02-27T12:20:04.071Z,42.05
2017-02-27T12:21:04.083Z,41.86
2017-02-27T12:22:04.360Z,42.18
2017-02-27T12:23:04.140Z,42.25
2017-02-27T12:24:04.190Z,42.18
2017-02-27T12:25:04.202Z,42.27
2017-02-27T12:26:03.822Z,41.98
2017-02-27T12:27:04.504Z,42.18
2017-02-27T12:28:04.276Z,42.66
2017-02-27T12:29:04.303Z,42.15
2017-02-27T12:30:04.334Z,41.78
2017-02-27T12:31:04.357Z,42.08
2017-02-27T12:32:04.639Z,42.08
2017-02-27T12:33:04.020Z,41.88
2017-02-27T12:34:04.053Z,41.88
2017-02-27T12:35:04.472Z,42.36
2017-02-27T12:36:04.521Z,41.78
2017-02-27T12:37:04.778Z,41.88
2017-02-27T12:38:04.551Z,41.88
2017-02-27T12:39:04.588Z,42.18
2017-02-27T12:40:04.621Z,42.36
2017-02-27T12:41:04.250Z,42.18
2017-02-27T12:42:04.533Z,42.18
2017-02-27T12:43:04.695Z,42.15
2017-02-27T12:44:04.732Z,42.08
2017-02-27T12:45:04.749Z,42.18
2017-02-27T12:46:04.773Z,41.98
2017-02-27T12:47:04.666Z,41.98
2017-02-27T12:48:04.443Z,42.18
2017-02-27T12:49:04.872Z,41.5
2017-02-27T12:50:04.890Z,41.5
2017-02-27T12:51:04.929Z,41.69
2017-02-27T12:52:05.213Z,41.5
2017-02-27T12:53:04.587Z,41.4
2017-02-27T12:54:05.019Z,41.3
2017-02-27T12:55:05.036Z,41.2
2017-02-27T12:56:04.671Z,41.5
2017-02-27T12:57:04.694Z,41.11
2017-02-27T12:58:05.122Z,41.5
2017-02-27T12:59:04.755Z,41.6
2017-02-27T13:00:05.172Z,41.6
2017-02-27T13:01:05.217Z,41.69
2017-02-27T13:02:04.842Z,41.69
2017-02-27T13:03:05.258Z,41.69
2017-02-27T13:04:05.303Z,41.69
2017-02-27T13:05:05.328Z,41.6
2017-02-27T13:06:04.949Z,41.11
2017-02-27T13:07:05.373Z,41.4
2017-02-27T13:08:05.418Z,41.5
2017-02-27T13:09:05.030Z,41.3
2017-02-27T13:10:05.060Z,41.3
2017-02-27T13:11:05.092Z,41.3
2017-02-27T13:12:05.121Z,41.4
2017-02-27T13:13:05.150Z,41.5
2017-02-27T13:14:05.568Z,41.5